Time;durP1;ratioP1;P1;durP2;ratioP2;P2;SDS_P1;SDS_P2;PMS_P1;PMS_P2;Temp;Humidity;BMP_temperature;BMP_pressure;BME280_temperature;BME280_humidity;BME280_pressure;Samples;Min_cycle;Max_cycle;Signal;HPM_P1;HPM_P2
2021/10/03 00:01:30;;;;;;;2.83;2.40;;;22.40;55.80;;;;;;6169780;23;20387;-83
2021/10/03 00:03:58;;;;;;;2.53;2.33;;;22.40;55.70;;;;;;6146902;23;20411;-82
2021/10/03 00:06:26;;;;;;;3.33;2.60;;;22.40;55.70;;;;;;6170816;23;20384;-82
2021/10/03 00:08:53;;;;;;;2.80;2.47;;;22.40;55.70;;;;;;6147076;23;20415;-82
2021/10/03 00:11:20;;;;;;;2.53;2.33;;;22.40;55.60;;;;;;6172118;23;20471;-81
2021/10/03 00:13:46;;;;;;;2.50;2.30;;;22.40;55.60;;;;;;6146566;23;20423;-82
2021/10/03 00:16:12;;;;;;;2.60;2.10;;;22.40;55.60;;;;;;6146935;23;20376;-81
2021/10/03 00:22:00;;;;;;;2.63;2.37;;;22.40;55.50;;;;;;6171353;23;20348;-82
2021/10/03 00:24:32;;;;;;;2.77;2.40;;;22.40;55.50;;;;;;6147123;23;20450;-82
2021/10/03 00:27:00;;;;;;;2.53;2.33;;;22.40;55.50;;;;;;6147148;23;20408;-82
2021/10/03 00:32:48;;;;;;;2.37;2.17;;;22.50;55.60;;;;;;6212182;22;20419;-82
2021/10/03 00:48:59;;;;;;;3.50;2.23;;;22.40;55.50;;;;;;6213715;23;20392;-81
2021/10/03 00:51:31;;;;;;;3.90;2.50;;;22.40;55.60;;;;;;6181359;23;20386;-81
2021/10/03 00:54:09;;;;;;;2.97;2.67;;;22.40;55.60;;;;;;6187129;23;20431;-81
2021/10/03 00:59:45;;;;;;;2.40;2.20;;;22.40;55.50;;;;;;6250201;22;20462;-81
2021/10/03 01:02:21;;;;;;;2.87;2.60;;;22.40;55.50;;;;;;6279715;22;20384;-82
2021/10/03 01:04:49;;;;;;;2.77;2.33;;;22.40;55.50;;;;;;6294519;22;20388;-82
2021/10/03 01:07:22;;;;;;;3.03;2.83;;;22.40;55.50;;;;;;6279831;22;20419;-82
2021/10/03 01:10:00;;;;;;;4.20;2.60;;;22.50;55.50;;;;;;6306163;22;20367;-83
2021/10/03 01:12:29;;;;;;;2.33;2.10;;;22.50;55.50;;;;;;6227455;22;20437;-81
2021/10/03 01:15:02;;;;;;;2.90;2.33;;;22.50;55.50;;;;;;6280103;22;20406;-82
2021/10/03 01:17:36;;;;;;;2.70;2.37;;;22.50;55.50;;;;;;6279850;22;20364;-82
2021/10/03 01:20:17;;;;;;;2.57;2.37;;;22.50;55.50;;;;;;6279674;22;20371;-82
2021/10/03 01:22:52;;;;;;;2.27;2.00;;;22.40;55.40;;;;;;6304475;22;20387;-82
2021/10/03 01:25:22;;;;;;;3.10;2.27;;;22.50;55.50;;;;;;6279870;22;20387;-82
2021/10/03 01:27:53;;;;;;;2.87;2.20;;;22.50;55.50;;;;;;6253232;22;20360;-82
2021/10/03 01:30:22;;;;;;;2.57;2.33;;;22.50;55.50;;;;;;6247255;22;20393;-83
2021/10/03 01:32:48;;;;;;;3.67;2.60;;;22.40;55.40;;;;;;6297991;22;20416;-84
2021/10/03 01:35:14;;;;;;;2.60;2.40;;;22.50;55.40;;;;;;6270699;22;20384;-84
2021/10/03 01:37:52;;;;;;;2.23;2.03;;;22.40;55.30;;;;;;6270395;22;20377;-84
2021/10/03 01:40:19;;;;;;;2.33;2.10;;;22.50;55.40;;;;;;6298099;22;20353;-83
2021/10/03 01:42:46;;;;;;;2.40;2.20;;;22.40;55.30;;;;;;6269052;22;20444;-83
2021/10/03 01:45:25;;;;;;;2.77;2.17;;;22.50;55.40;;;;;;6270612;22;20380;-83
2021/10/03 01:48:22;;;;;;;2.37;2.13;;;22.50;55.40;;;;;;6270112;22;20377;-83
2021/10/03 01:50:53;;;;;;;2.10;1.90;;;22.50;55.40;;;;;;6252333;22;20392;-83
2021/10/03 01:53:59;;;;;;;2.17;1.90;;;22.40;55.30;;;;;;6305416;22;20438;-82
2021/10/03 01:56:29;;;;;;;2.07;1.83;;;22.50;55.40;;;;;;6275466;22;20381;-83
2021/10/03 01:58:58;;;;;;;2.50;2.00;;;22.40;55.30;;;;;;6269772;22;20385;-83
2021/10/03 02:01:43;;;;;;;2.00;1.80;;;22.40;55.30;;;;;;6270937;22;20368;-84
2021/10/03 02:04:22;;;;;;;2.43;2.07;;;22.40;55.30;;;;;;6270575;22;20391;-83
2021/10/03 02:06:52;;;;;;;2.63;1.97;;;22.50;55.40;;;;;;6274451;22;20372;-82
2021/10/03 02:09:19;;;;;;;3.27;2.40;;;22.40;55.20;;;;;;6304968;22;20385;-82
2021/10/03 02:11:51;;;;;;;2.27;1.90;;;22.40;55.20;;;;;;6279046;22;20388;-82
2021/10/03 02:14:26;;;;;;;2.30;2.10;;;22.40;55.20;;;;;;6278854;22;20412;-82
2021/10/03 02:16:59;;;;;;;2.13;1.93;;;22.50;55.30;;;;;;6279279;22;20398;-82
2021/10/03 02:19:29;;;;;;;2.40;2.13;;;22.50;55.30;;;;;;6305544;22;20598;-82
2021/10/03 02:22:00;;;;;;;3.13;2.77;;;22.50;55.30;;;;;;6305098;22;20372;-82
2021/10/03 02:24:26;;;;;;;2.27;2.07;;;22.40;55.20;;;;;;6278440;22;20389;-82
2021/10/03 02:26:52;;;;;;;2.90;2.30;;;22.50;55.30;;;;;;6278722;22;20471;-82
2021/10/03 02:29:18;;;;;;;2.00;1.80;;;22.40;55.20;;;;;;6277826;22;20376;-82
2021/10/03 02:31:46;;;;;;;2.00;1.73;;;22.40;55.20;;;;;;6299290;22;20157;-82
2021/10/03 02:34:12;;;;;;;2.13;1.93;;;22.50;55.30;;;;;;6304464;22;20180;-82
2021/10/03 02:36:41;;;;;;;2.63;2.17;;;22.50;55.30;;;;;;6304613;22;20369;-82
2021/10/03 02:39:07;;;;;;;2.20;1.77;;;22.40;55.20;;;;;;6304725;22;20375;-82
2021/10/03 02:41:33;;;;;;;2.33;2.13;;;22.40;55.20;;;;;;6280309;22;20376;-82
2021/10/03 02:44:00;;;;;;;2.23;2.03;;;22.40;55.20;;;;;;6307076;22;20369;-82
2021/10/03 02:46:27;;;;;;;2.90;2.10;;;22.40;55.20;;;;;;6306893;22;20361;-82
2021/10/03 02:48:58;;;;;;;2.63;1.70;;;22.40;55.10;;;;;;6307088;22;20387;-82
2021/10/03 02:51:27;;;;;;;1.73;1.63;;;22.50;55.20;;;;;;6274120;22;20475;-84
2021/10/03 02:53:54;;;;;;;1.87;1.73;;;22.40;55.10;;;;;;6297317;22;20412;-84
2021/10/03 02:56:22;;;;;;;2.20;2.00;;;22.50;55.30;;;;;;6269715;22;20391;-82
2021/10/03 02:58:48;;;;;;;2.90;2.10;;;22.50;55.20;;;;;;6268346;22;20376;-82
2021/10/03 03:01:14;;;;;;;1.80;1.70;;;22.50;55.20;;;;;;6295730;22;20454;-82
2021/10/03 03:03:49;;;;;;;2.20;2.10;;;22.50;55.20;;;;;;6268750;22;20440;-82
2021/10/03 03:06:15;;;;;;;2.17;1.87;;;22.40;55.10;;;;;;6268184;22;20375;-82
2021/10/03 03:08:41;;;;;;;2.53;1.97;;;22.50;55.20;;;;;;6267444;22;20376;-82
2021/10/03 03:11:08;;;;;;;2.07;1.70;;;22.50;55.20;;;;;;6267948;22;20384;-82
2021/10/03 03:13:36;;;;;;;2.10;1.90;;;22.50;55.20;;;;;;6295137;22;20404;-82
2021/10/03 03:16:05;;;;;;;1.80;1.67;;;22.40;55.20;;;;;;6269037;22;20395;-82
2021/10/03 03:18:32;;;;;;;1.73;1.60;;;22.40;55.10;;;;;;6270698;22;20380;-84
2021/10/03 03:20:58;;;;;;;1.97;1.60;;;22.40;55.20;;;;;;6271267;22;20384;-84
2021/10/03 03:26:47;;;;;;;2.23;2.03;;;22.50;55.20;;;;;;6297559;22;20371;-83
2021/10/03 03:29:16;;;;;;;2.10;1.60;;;22.40;55.20;;;;;;6270997;22;20387;-83
2021/10/03 03:31:43;;;;;;;3.00;2.10;;;22.40;55.20;;;;;;6271154;22;20381;-84
2021/10/03 03:34:09;;;;;;;1.87;1.67;;;22.40;55.20;;;;;;6298044;22;20743;-84
2021/10/03 03:36:38;;;;;;;2.40;2.00;;;22.50;55.30;;;;;;6271004;22;20419;-84
2021/10/03 03:39:05;;;;;;;2.10;1.87;;;22.50;55.30;;;;;;6270211;22;20209;-83
2021/10/03 03:41:31;;;;;;;2.00;1.50;;;22.50;55.30;;;;;;6297095;22;20365;-83
2021/10/03 03:43:57;;;;;;;2.33;2.13;;;22.50;55.30;;;;;;6270623;22;20417;-84
2021/10/03 03:46:25;;;;;;;2.10;1.90;;;22.50;55.90;;;;;;6270459;22;20411;-84
2021/10/03 03:55:22;;;;;;;2.80;2.50;;;22.50;55.30;;;;;;6297208;22;20387;-84
2021/10/03 03:57:54;;;;;;;2.17;1.97;;;22.40;55.30;;;;;;6296857;22;20369;-84
2021/10/03 04:00:23;;;;;;;2.10;1.90;;;22.40;55.30;;;;;;6269830;22;20410;-84
2021/10/03 04:02:54;;;;;;;2.40;2.20;;;22.40;55.30;;;;;;6269648;22;20384;-84
2021/10/03 04:11:57;;;;;;;2.40;1.77;;;22.40;55.30;;;;;;6297327;22;20347;-84
2021/10/03 04:14:23;;;;;;;1.90;1.80;;;22.40;55.30;;;;;;6269685;22;20416;-84
2021/10/03 04:16:54;;;;;;;2.60;2.30;;;22.30;55.30;;;;;;6269904;22;20412;-84
2021/10/03 04:19:20;;;;;;;1.60;1.43;;;22.40;55.40;;;;;;6270166;22;20398;-83
2021/10/03 04:21:46;;;;;;;2.00;1.80;;;22.40;55.40;;;;;;6269279;22;20375;-84
2021/10/03 04:24:13;;;;;;;2.00;1.80;;;22.40;55.30;;;;;;6269844;22;20844;-84
2021/10/03 04:27:13;;;;;;;2.20;1.90;;;22.40;55.40;;;;;;6269224;22;20153;-83
2021/10/03 04:29:42;;;;;;;2.17;1.87;;;22.40;55.40;;;;;;6269651;22;20384;-84
2021/10/03 04:32:08;;;;;;;2.33;2.13;;;22.40;55.40;;;;;;6269928;22;20399;-84
2021/10/03 04:34:37;;;;;;;2.13;1.80;;;22.40;55.50;;;;;;6269286;22;20447;-83
2021/10/03 04:37:03;;;;;;;2.33;1.80;;;22.40;55.40;;;;;;6269300;22;20380;-84
2021/10/03 04:39:31;;;;;;;1.80;1.70;;;22.50;55.50;;;;;;6269407;22;20380;-84
2021/10/03 04:41:59;;;;;;;2.10;1.90;;;22.40;55.40;;;;;;6268498;22;20381;-84
2021/10/03 04:44:26;;;;;;;1.90;1.67;;;22.40;55.40;;;;;;6243403;22;20393;-84
2021/10/03 04:46:58;;;;;;;2.23;2.00;;;22.50;55.50;;;;;;6301529;22;20374;-82
2021/10/03 04:49:27;;;;;;;2.30;2.10;;;22.50;55.40;;;;;;6276489;22;20387;-82
2021/10/03 04:51:54;;;;;;;1.87;1.77;;;22.50;55.40;;;;;;6275294;22;20380;-82
2021/10/03 04:54:23;;;;;;;2.10;1.90;;;22.50;55.40;;;;;;6251209;22;20419;-82
2021/10/03 04:56:49;;;;;;;1.90;1.60;;;22.50;55.40;;;;;;6275820;22;20385;-82
2021/10/03 04:59:18;;;;;;;2.17;1.90;;;22.50;55.40;;;;;;6275562;22;20415;-83
2021/10/03 05:01:46;;;;;;;2.43;2.20;;;22.50;55.40;;;;;;6302667;22;20163;-82
2021/10/03 05:04:14;;;;;;;2.50;2.30;;;22.50;55.40;;;;;;6275283;22;20388;-82
2021/10/03 05:06:40;;;;;;;1.93;1.63;;;22.60;55.40;;;;;;6301564;22;20406;-82
2021/10/03 05:09:09;;;;;;;2.47;2.10;;;22.60;55.40;;;;;;6275202;22;20380;-82
2021/10/03 05:11:35;;;;;;;2.10;1.90;;;22.60;55.40;;;;;;6274822;22;20384;-82
2021/10/03 05:14:06;;;;;;;2.17;1.97;;;22.60;55.40;;;;;;6274287;22;20423;-82
2021/10/03 05:16:36;;;;;;;2.90;2.10;;;22.60;55.40;;;;;;6275889;22;20142;-82
2021/10/03 05:19:03;;;;;;;2.00;1.77;;;22.60;55.40;;;;;;6274747;22;20373;-82
2021/10/03 05:21:29;;;;;;;1.83;1.63;;;22.60;55.40;;;;;;6274817;22;20380;-82
2021/10/03 05:23:55;;;;;;;2.40;2.03;;;22.60;55.40;;;;;;6302384;22;20395;-82
2021/10/03 05:26:21;;;;;;;2.77;2.10;;;22.60;55.40;;;;;;6302281;22;20435;-83
2021/10/03 05:28:50;;;;;;;2.50;1.57;;;22.60;55.40;;;;;;6276139;22;20138;-82
2021/10/03 05:31:23;;;;;;;1.90;1.80;;;22.60;55.40;;;;;;6276492;22;20406;-83
2021/10/03 05:33:49;;;;;;;2.20;1.90;;;22.60;55.40;;;;;;6302916;22;20373;-82
2021/10/03 05:36:19;;;;;;;2.10;1.90;;;22.60;55.30;;;;;;6276551;22;20381;-82
2021/10/03 05:39:00;;;;;;;2.67;2.27;;;22.70;55.50;;;;;;6276302;22;20411;-82
2021/10/03 05:41:55;;;;;;;1.80;1.70;;;22.70;55.40;;;;;;6279958;22;20402;-82
2021/10/03 05:44:24;;;;;;;2.17;1.83;;;22.60;55.40;;;;;;6300444;22;20384;-82
2021/10/03 05:46:50;;;;;;;2.13;1.93;;;22.60;55.40;;;;;;6274635;22;20395;-82
2021/10/03 05:49:58;;;;;;;2.00;1.77;;;22.60;55.40;;;;;;6276952;22;20368;-82
2021/10/03 05:52:35;;;;;;;2.70;2.07;;;22.60;55.30;;;;;;6276118;22;20379;-82
2021/10/03 05:55:36;;;;;;;2.47;2.00;;;22.60;55.50;;;;;;6301969;22;20357;-82
2021/10/03 05:58:07;;;;;;;2.13;1.77;;;22.70;55.50;;;;;;6279550;22;20371;-82
2021/10/03 06:04:00;;;;;;;1.80;1.70;;;22.60;55.40;;;;;;6302724;22;20391;-82
2021/10/03 06:06:27;;;;;;;2.27;2.00;;;22.60;55.50;;;;;;6276645;22;20365;-82
2021/10/03 06:08:59;;;;;;;1.83;1.73;;;22.60;55.50;;;;;;6275021;22;20368;-82
2021/10/03 06:11:28;;;;;;;1.97;1.80;;;22.60;55.40;;;;;;6251013;22;20376;-82
2021/10/03 06:14:10;;;;;;;;;;;;;;;;;;;;;
2021/10/03 06:16:48;;;;;;;2.00;1.80;;;22.70;55.50;;;;;;6211467;23;20347;-82
2021/10/03 06:19:20;;;;;;;1.93;1.80;;;22.60;55.40;;;;;;6210165;23;20367;-82
2021/10/03 06:21:46;;;;;;;2.70;2.07;;;22.60;55.40;;;;;;6211235;23;20379;-82
2021/10/03 06:24:22;;;;;;;1.90;1.80;;;22.60;55.40;;;;;;6211362;23;20387;-81
2021/10/03 06:26:49;;;;;;;2.20;2.00;;;22.70;55.40;;;;;;6186854;23;20394;-81
2021/10/03 06:29:18;;;;;;;2.30;2.10;;;22.70;55.40;;;;;;6210919;23;20422;-82
2021/10/03 06:31:48;;;;;;;2.50;2.30;;;22.70;55.40;;;;;;6186397;23;20414;-82
2021/10/03 06:34:16;;;;;;;2.10;1.90;;;22.70;55.40;;;;;;6186188;23;20423;-82
2021/10/03 06:36:47;;;;;;;2.13;1.90;;;22.70;55.40;;;;;;6207327;23;20423;-82
2021/10/03 06:39:27;;;;;;;2.70;2.33;;;22.70;55.40;;;;;;6209606;23;20379;-82
2021/10/03 06:42:09;;;;;;;1.97;1.77;;;22.70;55.30;;;;;;6209440;23;20479;-82
2021/10/03 06:45:03;;;;;;;2.47;1.93;;;22.70;55.40;;;;;;6162513;23;20450;-82
2021/10/03 06:47:53;;;;;;;2.33;1.90;;;22.70;55.40;;;;;;6155852;23;20394;-83
2021/10/03 06:50:23;;;;;;;1.90;1.80;;;22.70;55.40;;;;;;6181109;23;20400;-82
2021/10/03 06:53:09;;;;;;;1.70;1.60;;;22.70;55.40;;;;;;6185332;23;20432;-82
2021/10/03 06:55:39;;;;;;;2.20;1.87;;;22.70;55.40;;;;;;6189588;23;20367;-82
2021/10/03 06:58:16;;;;;;;2.67;1.93;;;22.70;55.40;;;;;;6210915;23;20425;-81
2021/10/03 07:04:04;;;;;;;2.10;1.90;;;22.80;55.40;;;;;;6211046;23;20479;-82
2021/10/03 07:06:33;;;;;;;2.60;2.40;;;22.70;55.40;;;;;;6185997;23;20383;-82
2021/10/03 07:09:05;;;;;;;2.60;2.40;;;22.70;55.40;;;;;;6180615;23;20387;-84
2021/10/03 07:11:32;;;;;;;2.23;2.03;;;22.70;55.40;;;;;;6206724;23;20363;-82
2021/10/03 07:14:01;;;;;;;3.33;2.13;;;22.80;55.40;;;;;;6207492;23;20425;-81
2021/10/03 07:16:33;;;;;;;2.10;1.83;;;22.80;55.40;;;;;;6184280;23;20450;-81
2021/10/03 07:19:44;;;;;;;2.17;1.97;;;22.80;55.40;;;;;;6276854;22;20464;-81
2021/10/03 07:22:12;;;;;;;2.30;2.10;;;22.80;55.40;;;;;;6274131;22;20423;-82
2021/10/03 07:24:42;;;;;;;2.10;1.90;;;22.80;55.40;;;;;;6277435;22;20388;-83
2021/10/03 07:27:34;;;;;;;2.40;2.20;;;22.80;55.40;;;;;;6303597;22;20357;-82
2021/10/03 07:30:01;;;;;;;2.00;1.80;;;22.80;56.00;;;;;;6277328;22;20361;-82
2021/10/03 07:32:28;;;;;;;2.23;1.97;;;22.80;55.40;;;;;;6274460;22;20415;-83
2021/10/03 07:35:09;;;;;;;2.40;2.10;;;22.80;55.40;;;;;;6272886;22;20396;-83
2021/10/03 07:37:45;;;;;;;2.43;2.23;;;22.80;55.40;;;;;;6247681;22;20385;-83
2021/10/03 07:40:11;;;;;;;3.30;2.37;;;22.80;55.40;;;;;;6272782;22;20372;-83
2021/10/03 07:42:42;;;;;;;2.20;2.00;;;22.80;55.40;;;;;;6272398;22;20380;-83
2021/10/03 07:45:12;;;;;;;3.40;2.63;;;22.80;55.40;;;;;;6273131;22;20376;-83
2021/10/03 07:47:40;;;;;;;5.07;2.70;;;22.80;55.40;;;;;;6272071;22;20411;-82
2021/10/03 07:50:07;;;;;;;2.20;2.00;;;22.80;55.40;;;;;;6296830;22;20380;-82
2021/10/03 07:52:36;;;;;;;2.90;2.53;;;22.80;55.50;;;;;;6270636;22;20380;-82
2021/10/03 07:55:03;;;;;;;5.40;1.90;;;22.80;55.40;;;;;;6269799;22;20413;-83
2021/10/03 07:57:32;;;;;;;2.57;2.30;;;22.80;55.40;;;;;;6269359;22;20373;-82
2021/10/03 07:59:58;;;;;;;3.43;2.70;;;22.80;55.40;;;;;;6269375;22;20929;-83
2021/10/03 08:02:24;;;;;;;5.10;2.30;;;22.80;55.40;;;;;;6269282;22;20384;-83
2021/10/03 08:04:55;;;;;;;3.40;2.80;;;22.80;55.40;;;;;;6269271;22;20173;-84
2021/10/03 08:07:23;;;;;;;2.33;2.13;;;22.80;55.40;;;;;;6296333;22;20357;-83
2021/10/03 08:10:21;;;;;;;2.90;2.13;;;22.80;55.40;;;;;;6269003;22;20847;-83
2021/10/03 08:13:35;;;;;;;2.70;2.50;;;22.80;55.40;;;;;;6269874;22;20416;-83
2021/10/03 08:15:42;;;;;;;2.50;2.30;;;22.80;55.40;;;;;;6285806;22;20373;-83
2021/10/03 08:18:11;;;;;;;3.10;2.20;;;22.80;55.50;;;;;;6269880;22;20400;-83
2021/10/03 08:20:41;;;;;;;3.90;2.60;;;22.80;55.40;;;;;;6295957;22;20373;-83
2021/10/03 08:23:09;;;;;;;2.90;2.60;;;22.80;55.50;;;;;;6268298;22;20392;-84
2021/10/03 08:25:35;;;;;;;3.10;2.80;;;22.80;55.40;;;;;;6268638;22;20384;-83
2021/10/03 08:28:04;;;;;;;4.20;2.60;;;22.80;56.00;;;;;;6270532;22;20388;-82
2021/10/03 08:30:30;;;;;;;3.03;2.60;;;22.80;55.50;;;;;;6270986;22;20398;-82
2021/10/03 08:32:56;;;;;;;3.70;2.70;;;22.80;55.40;;;;;;6296778;22;20739;-83
2021/10/03 08:35:25;;;;;;;3.40;2.93;;;22.80;55.40;;;;;;6270025;22;20373;-83
2021/10/03 08:38:03;;;;;;;3.23;2.87;;;22.80;55.40;;;;;;6296403;22;20692;-84
2021/10/03 08:40:30;;;;;;;4.33;2.87;;;22.80;55.40;;;;;;6271102;22;20376;-83
2021/10/03 08:43:08;;;;;;;3.10;2.63;;;22.80;55.50;;;;;;6271100;22;20435;-83
2021/10/03 08:45:41;;;;;;;4.10;2.60;;;22.90;55.50;;;;;;6296646;22;20368;-83
2021/10/03 08:48:08;;;;;;;3.87;3.10;;;22.90;55.50;;;;;;6268936;22;20390;-83
2021/10/03 08:50:38;;;;;;;3.80;2.73;;;22.80;55.40;;;;;;6296171;22;20372;-83
2021/10/03 08:56:29;;;;;;;6.67;3.77;;;22.90;55.50;;;;;;6296435;22;20842;-83
2021/10/03 08:58:58;;;;;;;3.20;2.90;;;22.80;55.50;;;;;;6295119;22;20388;-82
2021/10/03 09:01:26;;;;;;;2.90;2.53;;;22.80;55.50;;;;;;6268066;22;20452;-83
2021/10/03 09:03:55;;;;;;;3.00;2.70;;;22.80;55.50;;;;;;6267584;22;20388;-84
2021/10/03 09:06:22;;;;;;;3.53;2.70;;;22.80;55.50;;;;;;6268443;22;20381;-84
2021/10/03 09:08:52;;;;;;;2.70;2.37;;;22.80;55.60;;;;;;6295073;22;20399;-84
2021/10/03 09:11:18;;;;;;;2.80;2.57;;;22.90;55.60;;;;;;6294709;22;20372;-84
2021/10/03 09:13:58;;;;;;;4.50;3.10;;;22.80;55.50;;;;;;6269971;22;20454;-84
2021/10/03 09:16:50;;;;;;;5.53;2.93;;;22.90;55.60;;;;;;6269033;22;20161;-82
2021/10/03 09:19:16;;;;;;;2.63;2.43;;;22.90;55.60;;;;;;6268247;22;20700;-82
2021/10/03 09:21:44;;;;;;;2.87;2.57;;;22.80;55.60;;;;;;6293613;22;20365;-81
2021/10/03 09:24:15;;;;;;;3.47;2.77;;;22.80;55.60;;;;;;6267307;22;20160;-81
2021/10/03 09:27:05;;;;;;;4.10;3.20;;;22.90;55.60;;;;;;6267399;22;20388;-81
2021/10/03 09:29:35;;;;;;;3.37;3.07;;;22.90;55.60;;;;;;6268230;22;20376;-82
2021/10/03 09:32:18;;;;;;;3.80;3.13;;;22.80;55.60;;;;;;6268003;22;20466;-82
2021/10/03 09:34:53;;;;;;;4.00;3.03;;;22.90;55.60;;;;;;6268105;22;20373;-82
2021/10/03 09:37:35;;;;;;;3.00;2.70;;;22.80;55.60;;;;;;6295143;22;20349;-82
2021/10/03 09:40:17;;;;;;;3.47;2.80;;;22.90;55.70;;;;;;6267572;22;20372;-82
2021/10/03 09:43:04;;;;;;;6.57;3.57;;;22.80;55.60;;;;;;6295118;22;20355;-83
2021/10/03 09:45:31;;;;;;;3.57;3.27;;;22.80;56.20;;;;;;6267418;22;20436;-82
2021/10/03 09:48:08;;;;;;;3.30;2.90;;;22.80;55.70;;;;;;6266659;22;20376;-82
2021/10/03 09:50:40;;;;;;;4.13;2.90;;;22.80;55.70;;;;;;6294062;22;20364;-82
2021/10/03 09:53:07;;;;;;;4.73;3.17;;;22.90;55.80;;;;;;6293840;22;20396;-82
2021/10/03 09:55:48;;;;;;;3.90;2.77;;;22.80;55.70;;;;;;6267556;22;20414;-81
2021/10/03 09:58:17;;;;;;;3.13;2.73;;;22.80;55.70;;;;;;6293631;22;20364;-81
2021/10/03 10:00:43;;;;;;;4.90;3.33;;;22.80;56.30;;;;;;6294041;22;20364;-82
2021/10/03 10:03:09;;;;;;;3.33;3.00;;;22.80;55.70;;;;;;6266978;22;20396;-82
2021/10/03 10:05:35;;;;;;;4.07;3.67;;;22.80;55.70;;;;;;6267050;22;20893;-83
2021/10/03 10:08:04;;;;;;;6.90;4.07;;;22.80;55.70;;;;;;6294736;22;20376;-83
2021/10/03 10:10:35;;;;;;;4.50;3.43;;;22.80;55.70;;;;;;6267135;22;20150;-83
2021/10/03 10:13:15;;;;;;;3.73;3.00;;;22.80;55.70;;;;;;6293708;22;20450;-82
2021/10/03 10:15:44;;;;;;;4.10;3.60;;;22.80;55.70;;;;;;6267683;22;20440;-82
2021/10/03 10:18:21;;;;;;;3.10;2.70;;;22.80;55.70;;;;;;6267623;22;20386;-82
2021/10/03 10:20:47;;;;;;;4.10;3.30;;;22.90;55.80;;;;;;6294009;22;20391;-82
2021/10/03 10:23:16;;;;;;;4.10;3.53;;;22.80;55.80;;;;;;6294418;22;20368;-82
2021/10/03 10:25:48;;;;;;;3.90;3.50;;;22.80;55.70;;;;;;6268172;22;20237;-82
2021/10/03 10:28:29;;;;;;;4.83;3.50;;;22.80;55.70;;;;;;6267246;22;20384;-82
2021/10/03 10:31:06;;;;;;;3.53;2.93;;;22.80;55.70;;;;;;6266477;22;20384;-82
2021/10/03 10:33:53;;;;;;;3.70;2.97;;;22.80;55.80;;;;;;6266870;22;20422;-82
2021/10/03 10:36:26;;;;;;;4.20;3.13;;;22.90;55.80;;;;;;6294306;22;20379;-82
2021/10/03 10:39:07;;;;;;;3.30;3.00;;;22.80;55.70;;;;;;6294080;22;20345;-82
2021/10/03 10:41:39;;;;;;;5.03;3.20;;;22.80;55.70;;;;;;6267059;22;20389;-81
2021/10/03 10:44:24;;;;;;;3.40;3.10;;;22.80;55.80;;;;;;6267372;22;20383;-82
2021/10/03 10:47:06;;;;;;;4.07;2.93;;;22.80;55.80;;;;;;6266427;22;20372;-82
2021/10/03 10:49:47;;;;;;;4.90;3.90;;;22.80;55.80;;;;;;6266510;22;20376;-82
2021/10/03 10:52:19;;;;;;;3.30;3.00;;;22.80;55.80;;;;;;6266131;22;20440;-82
2021/10/03 10:55:06;;;;;;;3.50;3.20;;;22.80;55.80;;;;;;6265954;22;20396;-82
2021/10/03 10:57:59;;;;;;;3.13;2.83;;;22.80;55.80;;;;;;6265958;22;20364;-82
2021/10/03 11:00:33;;;;;;;3.77;3.40;;;22.80;55.80;;;;;;6264842;22;20383;-82
2021/10/03 11:03:04;;;;;;;5.00;3.60;;;22.80;55.80;;;;;;6295286;22;20394;-82
2021/10/03 11:08:09;;;;;;;3.87;3.17;;;22.80;55.80;;;;;;6296168;22;20513;-82
2021/10/03 11:10:57;;;;;;;4.53;3.73;;;22.80;55.80;;;;;;6267142;22;20399;-82
2021/10/03 11:13:43;;;;;;;4.10;2.90;;;22.80;55.80;;;;;;6295121;22;20404;-81
2021/10/03 11:16:43;;;;;;;3.87;3.03;;;22.80;55.80;;;;;;6295504;22;20353;-82
2021/10/03 11:19:21;;;;;;;8.73;2.93;;;22.80;55.80;;;;;;6269165;22;20377;-81
2021/10/03 11:22:08;;;;;;;5.03;3.33;;;22.80;55.80;;;;;;6268554;22;20384;-81
2021/10/03 11:24:41;;;;;;;4.13;3.20;;;22.80;55.80;;;;;;6268336;22;20417;-81
2021/10/03 11:27:12;;;;;;;3.47;3.17;;;22.80;55.80;;;;;;6268590;22;20399;-82
2021/10/03 11:29:45;;;;;;;6.70;3.20;;;22.80;55.90;;;;;;6268159;22;20408;-82
2021/10/03 11:32:17;;;;;;;3.80;3.33;;;22.80;55.80;;;;;;6266608;22;20389;-82
2021/10/03 11:34:47;;;;;;;3.03;2.80;;;22.80;55.80;;;;;;6267298;22;20416;-83
2021/10/03 11:37:23;;;;;;;4.70;3.50;;;22.80;55.90;;;;;;6266099;22;20461;-84
2021/10/03 11:40:11;;;;;;;5.57;2.87;;;22.80;55.80;;;;;;6267497;22;20395;-83
2021/10/03 11:42:45;;;;;;;3.73;3.33;;;22.80;55.80;;;;;;6294085;22;20353;-83
2021/10/03 11:45:22;;;;;;;3.53;3.23;;;22.80;55.80;;;;;;6266637;22;20382;-83
2021/10/03 11:47:49;;;;;;;5.00;2.80;;;22.80;55.90;;;;;;6266385;22;20444;-84
2021/10/03 11:50:23;;;;;;;4.10;2.70;;;22.80;55.90;;;;;;6266478;22;20400;-84
2021/10/03 11:52:55;;;;;;;4.00;3.07;;;22.80;55.80;;;;;;6266248;22;20417;-83
2021/10/03 11:55:32;;;;;;;4.70;3.90;;;22.80;55.80;;;;;;6293292;22;20364;-83
2021/10/03 11:58:04;;;;;;;3.87;3.37;;;22.80;55.80;;;;;;6266744;22;20756;-83
2021/10/03 12:00:30;;;;;;;3.63;2.90;;;22.80;55.80;;;;;;6240872;22;20385;-83
2021/10/03 12:06:26;;;;;;;3.40;2.80;;;22.90;55.90;;;;;;6292194;22;20410;-83
2021/10/03 12:08:52;;;;;;;3.03;2.73;;;22.80;55.90;;;;;;6265266;22;20393;-83
2021/10/03 12:11:18;;;;;;;3.00;2.70;;;22.80;55.90;;;;;;6291940;22;20922;-83
2021/10/03 12:14:05;;;;;;;4.33;3.40;;;22.80;55.90;;;;;;6264708;22;20212;-83
2021/10/03 12:16:30;;;;;;;5.23;3.33;;;22.80;55.80;;;;;;6264581;22;20380;-83
2021/10/03 12:19:04;;;;;;;4.10;3.47;;;22.80;55.80;;;;;;6264741;22;20400;-83
2021/10/03 12:21:33;;;;;;;4.03;3.17;;;22.80;55.80;;;;;;6264936;22;20149;-84
2021/10/03 12:24:05;;;;;;;3.80;3.23;;;22.80;55.80;;;;;;6264812;22;20411;-84
2021/10/03 12:26:50;;;;;;;4.27;3.07;;;22.80;55.80;;;;;;6264992;22;20393;-84
2021/10/03 12:29:24;;;;;;;3.33;2.73;;;22.80;55.80;;;;;;6265974;22;20380;-83
2021/10/03 12:31:53;;;;;;;4.17;2.97;;;22.80;55.90;;;;;;6269106;22;20407;-83
2021/10/03 12:34:22;;;;;;;4.70;3.87;;;22.80;55.90;;;;;;6266410;22;20898;-83
2021/10/03 12:36:54;;;;;;;3.80;3.23;;;22.80;55.90;;;;;;6267162;22;20866;-84
2021/10/03 12:39:35;;;;;;;4.87;3.10;;;22.80;55.80;;;;;;6267181;22;20377;-83
2021/10/03 12:42:13;;;;;;;4.57;3.30;;;22.80;55.80;;;;;;6294530;22;20353;-83
2021/10/03 12:44:41;;;;;;;4.43;2.93;;;22.80;55.80;;;;;;6267533;22;20373;-84
2021/10/03 12:47:17;;;;;;;4.07;2.70;;;22.80;55.80;;;;;;6267007;22;20388;-84
2021/10/03 12:49:44;;;;;;;3.37;3.07;;;22.80;55.80;;;;;;6267584;22;20744;-83
2021/10/03 12:52:12;;;;;;;4.80;4.03;;;22.80;55.80;;;;;;6267665;22;20376;-83
2021/10/03 12:54:38;;;;;;;3.73;3.43;;;22.80;55.80;;;;;;6267159;22;20750;-83
2021/10/03 12:57:23;;;;;;;3.30;3.00;;;22.80;55.90;;;;;;6293948;22;20392;-84
2021/10/03 12:59:49;;;;;;;3.50;2.80;;;22.80;55.80;;;;;;6267301;22;20368;-84
2021/10/03 13:02:15;;;;;;;3.63;3.20;;;22.80;55.80;;;;;;6267537;22;20471;-84
2021/10/03 13:04:40;;;;;;;4.23;3.20;;;22.80;55.80;;;;;;6267239;22;20180;-83
2021/10/03 13:07:11;;;;;;;4.63;2.73;;;22.80;55.80;;;;;;6293829;22;20179;-83
2021/10/03 13:09:44;;;;;;;4.10;3.23;;;22.80;55.80;;;;;;6266465;22;20384;-83
2021/10/03 13:12:11;;;;;;;3.73;3.10;;;22.80;55.80;;;;;;6267276;22;20388;-84
2021/10/03 13:14:37;;;;;;;5.00;3.23;;;22.80;55.80;;;;;;6267945;22;20416;-83
2021/10/03 13:17:03;;;;;;;3.80;3.23;;;22.80;55.80;;;;;;6296411;22;20384;-82
2021/10/03 13:19:29;;;;;;;3.07;2.77;;;22.80;55.80;;;;;;6269919;22;20383;-82
2021/10/03 13:21:54;;;;;;;5.43;3.47;;;22.80;55.80;;;;;;6294357;22;20373;-83
2021/10/03 13:24:20;;;;;;;3.83;3.30;;;22.80;55.80;;;;;;6266900;22;20158;-83
2021/10/03 13:26:46;;;;;;;4.57;3.17;;;22.80;55.80;;;;;;6267920;22;20180;-84
2021/10/03 13:29:15;;;;;;;3.40;3.10;;;22.80;55.80;;;;;;6266671;22;20376;-83
2021/10/03 13:31:40;;;;;;;3.20;2.77;;;22.80;55.80;;;;;;6267159;22;20154;-83
2021/10/03 13:34:06;;;;;;;3.77;3.37;;;22.80;55.80;;;;;;6267317;22;20415;-83
2021/10/03 13:36:35;;;;;;;3.53;3.20;;;22.80;55.80;;;;;;6266213;22;20205;-83
2021/10/03 13:39:04;;;;;;;3.00;2.70;;;22.80;55.80;;;;;;6266668;22;20150;-84
2021/10/03 13:41:30;;;;;;;3.50;3.20;;;22.80;55.80;;;;;;6267535;22;20380;-83
2021/10/03 13:44:00;;;;;;;2.80;2.60;;;22.80;55.80;;;;;;6267976;22;20434;-83
2021/10/03 13:46:29;;;;;;;3.53;3.13;;;22.80;55.80;;;;;;6267095;22;20408;-83
2021/10/03 13:49:02;;;;;;;4.17;3.77;;;22.80;55.80;;;;;;6294203;22;20375;-83
2021/10/03 13:51:29;;;;;;;3.80;3.23;;;22.80;55.80;;;;;;6272388;22;20432;-82
2021/10/03 13:53:55;;;;;;;4.27;2.90;;;22.80;55.80;;;;;;6293982;22;20735;-84
2021/10/03 13:56:24;;;;;;;4.50;3.17;;;22.80;55.80;;;;;;6267541;22;20388;-84
2021/10/03 13:58:52;;;;;;;3.60;3.30;;;22.80;55.70;;;;;;6294306;22;20391;-84
2021/10/03 14:01:18;;;;;;;3.50;2.90;;;22.80;55.70;;;;;;6266909;22;20430;-83
2021/10/03 14:03:43;;;;;;;3.20;2.90;;;22.80;55.70;;;;;;6293834;22;20376;-84
2021/10/03 14:06:15;;;;;;;3.67;3.00;;;22.80;55.70;;;;;;6294779;22;20585;-83
2021/10/03 14:08:52;;;;;;;4.30;3.40;;;22.80;55.80;;;;;;6267222;22;20149;-84